createdAt,value
2019-03-05T00:00:11.727Z,1.57
2019-03-05T00:03:34.109Z,1.32
2019-03-05T00:04:50.924Z,1.20
2019-03-05T00:06:07.608Z,1.00
2019-03-05T00:07:23.935Z,1.47
2019-03-05T00:08:40.672Z,1.10
2019-03-05T00:09:57.488Z,1.10
2019-03-05T00:11:14.077Z,1.45
2019-03-05T00:12:30.493Z,1.30
2019-03-05T00:13:46.898Z,1.10
2019-03-05T00:15:03.575Z,1.10
2019-03-05T00:16:20.805Z,1.45
2019-03-05T00:17:38.022Z,1.05
2019-03-05T00:18:54.555Z,1.55
2019-03-05T00:20:11.003Z,1.20
2019-03-05T00:21:27.929Z,1.62
2019-03-05T00:22:44.392Z,1.27
2019-03-05T00:24:01.489Z,1.37
2019-03-05T00:25:18.659Z,1.12
2019-03-05T00:26:34.965Z,1.52
2019-03-05T00:27:51.877Z,1.62
2019-03-05T00:29:08.920Z,1.32
2019-03-05T00:30:25.621Z,1.55
2019-03-05T00:31:42.864Z,1.20
2019-03-05T00:32:59.230Z,1.47
2019-03-05T00:34:16.336Z,1.40
2019-03-05T00:35:33.205Z,2.05
2019-03-05T00:36:50.490Z,1.47
2019-03-05T00:38:07.101Z,1.90
2019-03-05T00:39:23.998Z,1.85
2019-03-05T00:40:40.949Z,1.70
2019-03-05T00:41:57.593Z,2.00
2019-03-05T00:43:13.973Z,1.17
2019-03-05T00:44:30.395Z,1.42
2019-03-05T00:45:46.890Z,2.08
2019-03-05T00:47:03.185Z,1.40
2019-03-05T00:48:20.364Z,1.75
2019-03-05T00:49:36.784Z,1.50
2019-03-05T00:50:53.662Z,1.40
2019-03-05T00:52:10.697Z,1.90
2019-03-05T00:53:27.136Z,1.65
2019-03-05T00:54:44.522Z,1.40
2019-03-05T00:56:00.849Z,1.70
2019-03-05T00:57:17.507Z,1.50
2019-03-05T00:58:34.013Z,1.60
2019-03-05T00:59:50.491Z,1.32
2019-03-05T01:01:09.701Z,1.70
2019-03-05T01:02:26.524Z,2.05
2019-03-05T01:03:43.694Z,1.77
2019-03-05T01:05:00.509Z,1.80
2019-03-05T01:06:18.227Z,1.70
2019-03-05T01:07:34.708Z,1.50
2019-03-05T01:08:51.869Z,2.22
2019-03-05T01:10:09.467Z,1.90
2019-03-05T01:11:26.197Z,1.70
2019-03-05T01:12:42.777Z,2.25
2019-03-05T01:13:59.100Z,1.62
2019-03-05T01:15:15.641Z,1.70
2019-03-05T01:16:34.242Z,1.70
2019-03-05T01:17:50.972Z,1.52
2019-03-05T01:19:08.239Z,1.98
2019-03-05T01:20:24.896Z,1.55
2019-03-05T01:21:41.465Z,1.60
2019-03-05T01:22:59.130Z,1.47
2019-03-05T01:24:15.488Z,1.90
2019-03-05T01:25:32.509Z,2.02
2019-03-05T01:26:48.988Z,1.90
2019-03-05T01:28:05.358Z,2.15
2019-03-05T01:29:22.410Z,4.92
2019-03-05T01:32:52.046Z,1.90
2019-03-05T01:34:18.516Z,2.77
2019-03-05T01:35:39.589Z,1.65
2019-03-05T01:36:58.794Z,1.65
2019-03-05T01:38:15.963Z,1.72
2019-03-05T01:39:57.209Z,1.82
2019-03-05T01:41:13.732Z,1.25
2019-03-05T01:42:30.140Z,1.82
2019-03-05T01:43:47.368Z,1.37
2019-03-05T01:45:04.132Z,1.65
2019-03-05T01:46:20.636Z,1.57
2019-03-05T01:47:37.867Z,1.45
2019-03-05T01:48:54.809Z,1.60
2019-03-05T01:50:11.966Z,1.45
2019-03-05T01:51:28.488Z,2.08
2019-03-05T01:52:43.807Z,1.98
2019-03-05T01:54:00.257Z,1.22
2019-03-05T01:55:17.046Z,1.50
2019-03-05T01:56:33.570Z,1.55
2019-03-05T01:57:50.390Z,1.60
2019-03-05T01:59:06.918Z,1.90
2019-03-05T02:00:23.436Z,1.32
2019-03-05T02:01:40.212Z,1.40
2019-03-05T02:02:57.040Z,1.45
2019-03-05T02:04:14.314Z,1.40
2019-03-05T02:05:31.493Z,1.00
2019-03-05T02:06:48.494Z,1.60
2019-03-05T02:08:05.432Z,1.70
2019-03-05T02:09:20.732Z,1.40
2019-03-05T02:10:44.923Z,1.30
2019-03-05T02:12:01.704Z,1.65
2019-03-05T02:13:18.782Z,1.67
2019-03-05T02:14:35.424Z,3.12
2019-03-05T02:15:52.151Z,3.00
2019-03-05T02:17:09.261Z,2.65
2019-03-05T02:18:25.864Z,3.50
2019-03-05T02:19:42.646Z,3.70
2019-03-05T02:20:57.836Z,3.20
2019-03-05T02:22:41.052Z,2.70
2019-03-05T02:23:57.362Z,2.50
2019-03-05T02:25:13.741Z,1.80
2019-03-05T02:26:30.249Z,2.50
2019-03-05T02:27:46.845Z,2.92
2019-03-05T02:29:03.201Z,1.65
2019-03-05T02:30:19.644Z,2.25
2019-03-05T02:31:36.846Z,2.00
2019-03-05T02:32:53.499Z,1.45
2019-03-05T02:34:10.387Z,1.60
2019-03-05T02:35:26.970Z,1.30
2019-03-05T02:36:43.318Z,1.55
2019-03-05T02:37:59.865Z,1.40
2019-03-05T02:39:16.421Z,1.50
2019-03-05T02:40:33.649Z,1.55
2019-03-05T02:41:50.238Z,1.50
2019-03-05T02:43:06.680Z,1.72
2019-03-05T02:44:23.266Z,1.87
2019-03-05T02:45:39.928Z,1.10
2019-03-05T02:46:56.934Z,1.70
2019-03-05T02:48:13.496Z,1.32
2019-03-05T02:49:29.935Z,1.37
2019-03-05T02:50:46.413Z,1.70
2019-03-05T02:52:03.574Z,1.45
2019-03-05T02:53:20.153Z,1.40
2019-03-05T02:54:38.444Z,1.35
2019-03-05T02:55:54.895Z,1.57
2019-03-05T02:57:12.612Z,1.35
2019-03-05T02:58:29.270Z,1.37
2019-03-05T02:59:45.873Z,1.40
2019-03-05T03:01:21.142Z,1.07
2019-03-05T03:04:33.279Z,1.27
2019-03-05T03:05:58.760Z,1.70
2019-03-05T03:07:15.588Z,0.93
2019-03-05T03:08:32.074Z,1.20
2019-03-05T03:09:48.426Z,1.40
2019-03-05T03:11:04.970Z,1.70
2019-03-05T03:12:21.443Z,1.90
2019-03-05T03:13:37.826Z,1.47
2019-03-05T03:14:54.409Z,1.40
2019-03-05T03:16:11.042Z,1.65
2019-03-05T03:17:27.393Z,1.60
2019-03-05T03:18:44.321Z,1.45
2019-03-05T03:20:00.687Z,2.00
2019-03-05T03:21:17.067Z,1.15
2019-03-05T03:22:33.565Z,1.65
2019-03-05T03:23:50.206Z,1.62
2019-03-05T03:25:06.774Z,1.57
2019-03-05T03:26:23.840Z,1.45
2019-03-05T03:27:40.513Z,1.82
2019-03-05T03:28:57.170Z,1.60
2019-03-05T03:30:13.529Z,1.42
2019-03-05T03:31:29.889Z,1.37
2019-03-05T03:32:46.324Z,1.60
2019-03-05T03:34:02.741Z,1.10
2019-03-05T03:35:19.890Z,1.40
2019-03-05T03:36:37.937Z,1.50
2019-03-05T03:37:55.051Z,1.20
2019-03-05T03:39:11.572Z,1.12
2019-03-05T03:40:28.057Z,1.30
2019-03-05T03:41:44.901Z,1.57
2019-03-05T03:43:01.484Z,1.45
2019-03-05T03:44:18.555Z,1.15
2019-03-05T03:45:35.182Z,1.02
2019-03-05T03:46:51.804Z,1.52
2019-03-05T03:48:08.036Z,1.30
2019-03-05T03:49:25.628Z,1.32
2019-03-05T03:50:42.148Z,1.70
2019-03-05T03:51:58.918Z,1.20
2019-03-05T03:53:15.579Z,1.22
2019-03-05T03:54:32.711Z,1.45
2019-03-05T03:55:47.956Z,0.98
2019-03-05T03:57:04.423Z,1.30
2019-03-05T03:58:21.509Z,1.75
2019-03-05T03:59:38.603Z,1.90
2019-03-05T04:00:55.314Z,1.20
2019-03-05T04:02:11.787Z,1.20
2019-03-05T04:03:28.757Z,1.40
2019-03-05T04:04:45.411Z,1.20
2019-03-05T04:06:02.587Z,1.10
2019-03-05T04:07:19.114Z,1.10
2019-03-05T04:08:36.362Z,1.15
2019-03-05T04:09:52.762Z,1.47
2019-03-05T04:11:09.230Z,1.47
2019-03-05T04:12:26.346Z,1.05
2019-03-05T04:13:43.516Z,1.10
2019-03-05T04:15:00.345Z,0.90
2019-03-05T04:16:16.972Z,1.10
2019-03-05T04:17:33.726Z,1.10
2019-03-05T04:18:50.618Z,0.90
2019-03-05T04:20:07.678Z,1.10
2019-03-05T04:21:24.924Z,1.07
2019-03-05T04:22:41.272Z,1.07
2019-03-05T04:23:58.349Z,1.30
2019-03-05T04:25:15.619Z,1.40
2019-03-05T04:26:32.073Z,1.07
2019-03-05T04:27:49.210Z,2.27
2019-03-05T04:29:05.777Z,1.15
2019-03-05T04:30:22.328Z,1.50
2019-03-05T04:31:39.122Z,1.22
2019-03-05T04:32:56.413Z,1.17
2019-03-05T04:34:13.093Z,1.00
2019-03-05T04:35:29.916Z,1.10
2019-03-05T04:36:46.308Z,1.57
2019-03-05T04:38:03.260Z,1.30
2019-03-05T04:39:19.753Z,1.10
2019-03-05T04:40:36.486Z,1.00
2019-03-05T04:41:53.002Z,1.00
2019-03-05T04:43:09.508Z,1.30
2019-03-05T04:44:31.496Z,1.10
2019-03-05T04:47:41.105Z,1.92
2019-03-05T04:49:16.620Z,1.60
2019-03-05T04:50:37.771Z,1.62
2019-03-05T04:52:00.378Z,1.62
2019-03-05T04:53:18.460Z,1.17
2019-03-05T04:54:34.943Z,1.30
2019-03-05T04:55:51.846Z,1.40
2019-03-05T04:57:08.691Z,1.20
2019-03-05T04:58:25.339Z,1.40
2019-03-05T04:59:41.830Z,1.02
2019-03-05T05:00:58.640Z,1.40
2019-03-05T05:02:15.308Z,1.75
2019-03-05T05:03:31.488Z,1.40
2019-03-05T05:04:47.968Z,2.40
2019-03-05T05:06:05.036Z,1.12
2019-03-05T05:07:21.785Z,1.67
2019-03-05T05:08:38.123Z,1.42
2019-03-05T05:09:55.261Z,1.40
2019-03-05T05:11:11.794Z,1.65
2019-03-05T05:12:28.697Z,1.98
2019-03-05T05:13:45.333Z,1.15
2019-03-05T05:15:02.245Z,1.50
2019-03-05T05:16:18.789Z,1.10
2019-03-05T05:17:35.296Z,1.52
2019-03-05T05:18:51.788Z,0.98
2019-03-05T05:20:08.263Z,1.70
2019-03-05T05:21:24.696Z,1.65
2019-03-05T05:22:41.446Z,1.62
2019-03-05T05:23:57.866Z,1.50
2019-03-05T05:25:14.800Z,1.82
2019-03-05T05:26:31.926Z,1.55
2019-03-05T05:27:48.385Z,1.60
2019-03-05T05:29:04.749Z,2.15
2019-03-05T05:30:21.361Z,1.45
2019-03-05T05:31:38.033Z,1.75
2019-03-05T05:32:55.204Z,1.47
2019-03-05T05:34:11.729Z,1.80
2019-03-05T05:35:28.162Z,1.20
2019-03-05T05:36:44.664Z,1.30
2019-03-05T05:38:01.381Z,1.50
2019-03-05T05:39:17.972Z,1.65
2019-03-05T05:40:34.480Z,1.90
2019-03-05T05:41:49.751Z,1.40
2019-03-05T05:43:18.231Z,1.37
2019-03-05T05:44:34.640Z,1.57
2019-03-05T05:45:51.076Z,2.15
2019-03-05T05:47:08.078Z,1.87
2019-03-05T05:48:24.451Z,1.50
2019-03-05T05:49:40.850Z,1.80
2019-03-05T05:50:57.235Z,1.70
2019-03-05T05:52:13.492Z,1.85
2019-03-05T05:53:30.025Z,2.00
2019-03-05T05:54:47.533Z,1.47
2019-03-05T05:56:04.672Z,1.82
2019-03-05T05:57:21.509Z,1.57
2019-03-05T05:58:38.040Z,1.60
2019-03-05T05:59:54.489Z,1.95
2019-03-05T06:01:12.711Z,1.87
2019-03-05T06:02:29.561Z,1.65
2019-03-05T06:03:45.904Z,1.70
2019-03-05T06:05:02.440Z,1.70
2019-03-05T06:06:19.981Z,1.30
2019-03-05T06:07:36.398Z,1.72
2019-03-05T06:08:53.013Z,1.75
2019-03-05T06:10:09.419Z,1.30
2019-03-05T06:11:23.670Z,1.20
2019-03-05T06:12:47.769Z,1.40
2019-03-05T06:14:04.455Z,1.57
2019-03-05T06:15:21.960Z,1.40
2019-03-05T06:16:39.227Z,1.17
2019-03-05T06:17:56.215Z,1.90
2019-03-05T06:19:12.628Z,1.55
2019-03-05T06:20:29.909Z,1.40
2019-03-05T06:21:46.409Z,1.80
2019-03-05T06:23:03.261Z,1.55
2019-03-05T06:24:19.861Z,1.57
2019-03-05T06:25:37.075Z,1.77
2019-03-05T06:26:53.903Z,1.98
2019-03-05T06:28:10.573Z,2.12
2019-03-05T06:29:28.257Z,1.42
2019-03-05T06:30:44.579Z,1.20
2019-03-05T06:32:03.353Z,1.35
2019-03-05T06:33:20.457Z,1.50
2019-03-05T06:34:36.926Z,1.22
2019-03-05T06:35:53.750Z,1.87
2019-03-05T06:37:10.252Z,1.45
2019-03-05T06:38:26.554Z,1.55
2019-03-05T06:39:43.604Z,1.00
2019-03-05T06:41:00.161Z,1.40
2019-03-05T06:42:16.716Z,1.40
2019-03-05T06:43:33.470Z,1.10
2019-03-05T06:44:49.883Z,1.32
2019-03-05T06:46:06.797Z,1.37
2019-03-05T06:47:23.221Z,1.10
2019-03-05T06:48:40.185Z,1.30
2019-03-05T06:49:56.961Z,1.00
2019-03-05T06:51:13.384Z,0.80
2019-03-05T06:52:30.066Z,1.07
2019-03-05T06:53:47.210Z,1.00
2019-03-05T06:55:03.896Z,0.95
2019-03-05T06:56:20.526Z,1.10
2019-03-05T06:57:37.325Z,0.90
2019-03-05T06:58:53.725Z,0.80
2019-03-05T07:00:10.731Z,0.88
2019-03-05T07:01:27.448Z,0.80
2019-03-05T07:02:43.943Z,0.90
2019-03-05T07:04:00.769Z,1.07
2019-03-05T07:05:17.221Z,0.93
2019-03-05T07:06:33.657Z,0.80
2019-03-05T07:07:49.965Z,1.00
2019-03-05T07:09:07.113Z,0.85
2019-03-05T07:10:24.202Z,0.80
2019-03-05T07:11:40.588Z,0.80
2019-03-05T07:13:03.606Z,1.02
2019-03-05T07:14:33.721Z,0.93
2019-03-05T07:16:16.989Z,0.90
2019-03-05T07:17:33.237Z,0.70
2019-03-05T07:18:50.180Z,0.75
2019-03-05T07:20:06.481Z,1.50
2019-03-05T07:21:23.594Z,1.50
2019-03-05T07:22:40.101Z,0.75
2019-03-05T07:23:56.912Z,0.82
2019-03-05T07:25:13.942Z,0.90
2019-03-05T07:26:30.565Z,1.00
2019-03-05T07:27:46.963Z,1.10
2019-03-05T07:29:04.088Z,0.80
2019-03-05T07:30:20.991Z,1.10
2019-03-05T07:31:37.647Z,0.80
2019-03-05T07:32:54.861Z,1.00
2019-03-05T07:34:17.492Z,0.60
2019-03-05T07:35:35.242Z,0.90
2019-03-05T07:36:52.234Z,1.00
2019-03-05T07:38:09.558Z,0.80
2019-03-05T07:39:26.578Z,0.95
2019-03-05T07:40:42.893Z,0.68
2019-03-05T07:41:59.343Z,0.90
2019-03-05T07:43:16.145Z,0.80
2019-03-05T07:44:33.320Z,0.90
2019-03-05T07:45:50.449Z,0.70
2019-03-05T07:47:06.842Z,0.90
2019-03-05T07:48:23.836Z,0.80
2019-03-05T07:49:44.071Z,0.72
2019-03-05T07:50:59.005Z,0.68
2019-03-05T07:52:15.442Z,0.80
2019-03-05T07:53:31.936Z,0.50
2019-03-05T07:54:48.337Z,0.70
2019-03-05T07:56:04.625Z,0.70
2019-03-05T07:57:21.262Z,0.70
2019-03-05T07:58:37.684Z,0.80
2019-03-05T07:59:54.226Z,1.00
2019-03-05T08:01:21.516Z,0.95
2019-03-05T08:02:29.412Z,0.88
2019-03-05T08:03:45.973Z,0.60
2019-03-05T08:05:02.382Z,0.80
2019-03-05T08:06:19.509Z,1.40
2019-03-05T08:07:37.189Z,0.82
2019-03-05T08:08:54.309Z,1.07
2019-03-05T08:10:10.817Z,0.95
2019-03-05T08:11:27.477Z,0.85
2019-03-05T08:12:43.953Z,0.93
2019-03-05T08:14:01.044Z,0.78
2019-03-05T08:15:18.217Z,1.20
2019-03-05T08:16:34.941Z,1.00
2019-03-05T08:17:52.021Z,1.07
2019-03-05T08:19:08.532Z,0.85
2019-03-05T08:20:25.121Z,1.12
2019-03-05T08:21:41.904Z,0.90
2019-03-05T08:22:58.531Z,0.90
2019-03-05T08:24:15.948Z,1.25
2019-03-05T08:25:33.270Z,0.75
2019-03-05T08:26:49.662Z,1.07
2019-03-05T08:28:06.345Z,0.90
2019-03-05T08:29:22.692Z,1.12
2019-03-05T08:30:39.306Z,1.00
2019-03-05T08:31:56.626Z,1.00
2019-03-05T08:33:13.217Z,1.00
2019-03-05T08:34:29.624Z,0.70
2019-03-05T08:35:47.339Z,1.00
2019-03-05T08:37:04.309Z,1.10
2019-03-05T08:38:21.008Z,0.90
2019-03-05T08:39:37.435Z,1.00
2019-03-05T08:42:29.165Z,1.17
2019-03-05T08:43:45.483Z,0.78
2019-03-05T08:45:01.922Z,0.85
2019-03-05T08:46:18.490Z,0.78
2019-03-05T08:47:35.566Z,0.72
2019-03-05T08:48:51.955Z,0.88
2019-03-05T08:50:08.866Z,0.88
2019-03-05T08:51:25.375Z,0.90
2019-03-05T08:52:41.881Z,0.90
2019-03-05T08:53:58.705Z,0.90
2019-03-05T08:55:15.189Z,0.65
2019-03-05T08:56:32.097Z,0.60
2019-03-05T08:57:48.814Z,1.02
2019-03-05T08:59:05.321Z,1.12
2019-03-05T09:00:22.386Z,0.70
2019-03-05T09:01:39.753Z,0.80
2019-03-05T09:02:56.645Z,0.70
2019-03-05T09:04:14.874Z,0.78
2019-03-05T09:05:31.267Z,0.85
2019-03-05T09:06:47.735Z,0.93
2019-03-05T09:08:04.313Z,1.00
2019-03-05T09:09:21.218Z,0.80
2019-03-05T09:10:37.830Z,1.02
2019-03-05T09:11:55.044Z,0.70
2019-03-05T09:13:11.654Z,0.80
2019-03-05T09:14:27.871Z,0.90
2019-03-05T09:15:44.261Z,0.80
2019-03-05T09:17:01.790Z,1.00
2019-03-05T09:18:19.119Z,0.90
2019-03-05T09:19:35.569Z,0.70
2019-03-05T09:20:52.161Z,1.00
2019-03-05T09:22:08.505Z,1.00
2019-03-05T09:23:24.740Z,1.20
2019-03-05T09:24:41.887Z,0.80
2019-03-05T09:25:58.320Z,1.07
2019-03-05T09:27:14.630Z,0.88
2019-03-05T09:28:31.079Z,1.02
2019-03-05T09:29:48.048Z,0.93
2019-03-05T09:31:05.308Z,1.07
2019-03-05T09:32:22.332Z,1.02
2019-03-05T09:33:39.339Z,0.90
2019-03-05T09:34:55.598Z,0.70
2019-03-05T09:36:12.280Z,1.10
2019-03-05T09:37:29.325Z,0.95
2019-03-05T09:38:46.125Z,0.98
2019-03-05T09:40:03.154Z,0.90
2019-03-05T09:41:21.501Z,1.20
2019-03-05T09:42:40.177Z,0.82
2019-03-05T09:43:56.979Z,1.00
2019-03-05T09:45:13.813Z,0.90
2019-03-05T09:46:29.101Z,1.17
2019-03-05T09:47:53.348Z,0.90
2019-03-05T09:49:17.515Z,0.95
2019-03-05T09:50:41.705Z,0.80
2019-03-05T09:51:58.212Z,0.93
2019-03-05T09:53:14.665Z,0.80
2019-03-05T09:54:31.632Z,0.90
2019-03-05T09:55:47.995Z,1.20
2019-03-05T09:57:04.626Z,0.90
2019-03-05T09:58:21.086Z,0.90
2019-03-05T09:59:38.281Z,1.02
2019-03-05T10:00:54.805Z,0.80
2019-03-05T10:02:12.043Z,1.05
2019-03-05T10:03:28.558Z,1.00
2019-03-05T10:04:44.837Z,1.15
2019-03-05T10:06:01.222Z,0.90
2019-03-05T10:07:19.284Z,0.82
2019-03-05T10:08:35.708Z,1.10
2019-03-05T10:09:53.189Z,1.10
2019-03-05T10:11:09.692Z,1.10
2019-03-05T10:12:26.472Z,1.02
2019-03-05T10:13:43.973Z,1.02
2019-03-05T10:15:00.553Z,0.90
2019-03-05T10:16:19.077Z,0.90
2019-03-05T10:17:37.854Z,0.88
2019-03-05T10:19:01.213Z,0.95
2019-03-05T10:20:17.848Z,1.05
2019-03-05T10:21:45.576Z,0.70
2019-03-05T10:22:54.115Z,0.68
2019-03-05T10:24:11.122Z,0.85
2019-03-05T10:25:27.638Z,0.93
2019-03-05T10:26:44.457Z,1.00
2019-03-05T10:28:00.849Z,0.60
2019-03-05T10:29:17.269Z,0.80
2019-03-05T10:30:33.914Z,0.75
2019-03-05T10:31:50.509Z,0.90
2019-03-05T10:33:09.472Z,0.65
2019-03-05T10:34:26.813Z,0.70
2019-03-05T10:35:43.452Z,0.70
2019-03-05T10:36:58.784Z,1.15
2019-03-05T10:38:22.897Z,0.98
2019-03-05T10:39:39.721Z,1.00
2019-03-05T10:40:56.496Z,1.20
2019-03-05T10:42:12.879Z,0.80
2019-03-05T10:43:29.236Z,1.00
2019-03-05T10:44:45.865Z,0.95
2019-03-05T10:46:02.382Z,0.90
2019-03-05T10:47:19.703Z,0.90
2019-03-05T10:48:36.097Z,1.05
2019-03-05T10:49:52.718Z,0.88
2019-03-05T10:51:08.041Z,1.05
2019-03-05T10:54:07.938Z,0.70
2019-03-05T10:55:26.602Z,0.82
2019-03-05T10:56:42.559Z,0.70
2019-03-05T10:57:59.627Z,0.80
2019-03-05T10:59:16.230Z,1.10
2019-03-05T11:00:33.233Z,0.80
2019-03-05T11:01:49.977Z,0.90
2019-03-05T11:03:06.494Z,1.10
2019-03-05T11:04:23.749Z,1.07
2019-03-05T11:05:40.583Z,1.02
2019-03-05T11:06:57.849Z,1.20
2019-03-05T11:08:14.266Z,0.70
2019-03-05T11:09:30.816Z,0.90
2019-03-05T11:10:47.329Z,1.00
2019-03-05T11:12:03.864Z,0.90
2019-03-05T11:13:21.798Z,0.80
2019-03-05T11:14:38.273Z,0.90
2019-03-05T11:15:54.593Z,0.70
2019-03-05T11:17:11.137Z,0.85
2019-03-05T11:18:29.721Z,0.90
2019-03-05T11:19:45.734Z,0.60
2019-03-05T11:21:02.123Z,1.37
2019-03-05T11:22:18.983Z,1.02
2019-03-05T11:23:35.475Z,0.88
2019-03-05T11:24:52.305Z,0.98
2019-03-05T11:26:09.507Z,0.80
2019-03-05T11:27:26.150Z,1.05
2019-03-05T11:28:44.276Z,0.90
2019-03-05T11:30:01.495Z,0.65
2019-03-05T11:31:19.636Z,0.80
2019-03-05T11:32:36.146Z,1.30
2019-03-05T11:33:53.473Z,1.30
2019-03-05T11:35:10.730Z,1.02
2019-03-05T11:36:28.094Z,1.00
2019-03-05T11:37:44.989Z,0.90
2019-03-05T11:39:02.049Z,1.00
2019-03-05T11:40:21.277Z,0.80
2019-03-05T11:41:38.800Z,1.30
2019-03-05T11:42:55.776Z,0.93
2019-03-05T11:44:12.179Z,0.80
2019-03-05T11:45:27.469Z,0.72
2019-03-05T11:46:51.635Z,1.40
2019-03-05T11:48:08.169Z,1.05
2019-03-05T11:49:25.236Z,0.95
2019-03-05T11:50:41.809Z,1.55
2019-03-05T11:51:59.211Z,0.80
2019-03-05T11:53:15.667Z,0.95
2019-03-05T11:54:32.788Z,0.80
2019-03-05T11:55:49.210Z,0.85
2019-03-05T11:57:05.794Z,0.70
2019-03-05T11:58:22.360Z,0.80
2019-03-05T11:59:38.915Z,0.80
2019-03-05T12:01:17.410Z,0.78
2019-03-05T12:02:33.933Z,0.70
2019-03-05T12:03:51.104Z,0.60
2019-03-05T12:05:07.501Z,0.80
2019-03-05T12:06:22.695Z,0.68
2019-03-05T12:07:49.902Z,0.53
2019-03-05T12:09:06.541Z,0.70
2019-03-05T12:10:24.784Z,1.00
2019-03-05T12:11:41.525Z,1.05
2019-03-05T12:12:59.006Z,0.57
2019-03-05T12:14:15.476Z,0.80
2019-03-05T12:15:31.821Z,0.80
2019-03-05T12:16:48.402Z,0.60
2019-03-05T12:18:05.082Z,0.60
2019-03-05T12:19:21.557Z,0.65
2019-03-05T12:20:38.280Z,0.72
2019-03-05T12:21:54.872Z,0.50
2019-03-05T12:23:11.873Z,0.53
2019-03-05T12:24:29.174Z,0.72
2019-03-05T12:25:45.622Z,0.60
2019-03-05T12:27:02.269Z,0.50
2019-03-05T12:28:19.374Z,0.95
2019-03-05T12:29:36.061Z,0.70
2019-03-05T12:30:52.402Z,0.65
2019-03-05T12:32:08.733Z,0.72
2019-03-05T12:33:25.583Z,0.93
2019-03-05T12:34:42.606Z,0.40
2019-03-05T12:35:59.208Z,0.70
2019-03-05T12:37:15.739Z,0.60
2019-03-05T12:38:32.924Z,0.60
2019-03-05T12:39:49.657Z,0.60
2019-03-05T12:41:04.864Z,0.62
2019-03-05T12:42:29.068Z,0.60
2019-03-05T12:43:45.874Z,0.60
2019-03-05T12:45:02.512Z,0.55
2019-03-05T12:46:20.029Z,0.50
2019-03-05T12:47:36.456Z,0.60
2019-03-05T12:48:53.157Z,0.60
2019-03-05T12:50:09.941Z,0.50
2019-03-05T12:51:26.990Z,0.50
2019-03-05T12:52:43.419Z,0.60
2019-03-05T12:54:00.079Z,0.70
2019-03-05T12:55:17.209Z,0.55
2019-03-05T12:56:33.773Z,0.70
2019-03-05T12:57:50.144Z,0.50
2019-03-05T12:59:07.422Z,0.70
2019-03-05T13:00:24.697Z,0.70
2019-03-05T13:01:41.246Z,0.60
2019-03-05T13:02:57.736Z,0.60
2019-03-05T13:04:14.025Z,0.60
2019-03-05T13:05:31.194Z,0.95
2019-03-05T13:06:47.845Z,0.50
2019-03-05T13:08:04.483Z,0.50
2019-03-05T13:09:19.729Z,0.50
2019-03-05T13:10:45.237Z,0.70
2019-03-05T13:12:11.316Z,0.60
2019-03-05T13:13:27.696Z,0.75
2019-03-05T13:14:44.222Z,0.50
2019-03-05T13:16:00.738Z,0.70
2019-03-05T13:17:17.617Z,0.50
2019-03-05T13:18:34.866Z,0.53
2019-03-05T13:19:53.580Z,0.50
2019-03-05T13:21:10.157Z,0.60
2019-03-05T13:22:28.835Z,1.30
2019-03-05T13:23:45.574Z,0.75
2019-03-05T13:25:01.926Z,0.72
2019-03-05T13:26:19.593Z,0.78
2019-03-05T13:27:36.258Z,0.68
2019-03-05T13:28:52.612Z,0.70
2019-03-05T13:30:10.482Z,0.70
2019-03-05T13:31:27.167Z,0.60
2019-03-05T13:32:43.682Z,0.80
2019-03-05T13:34:00.291Z,0.60
2019-03-05T13:35:16.903Z,0.60
2019-03-05T13:36:33.418Z,0.75
2019-03-05T13:37:49.817Z,0.60
2019-03-05T13:39:08.155Z,0.60
2019-03-05T13:40:26.153Z,0.47
2019-03-05T13:41:43.166Z,0.88
2019-03-05T13:42:59.588Z,0.60
2019-03-05T13:44:16.533Z,0.70
2019-03-05T13:45:33.121Z,0.57
2019-03-05T13:46:50.266Z,0.80
2019-03-05T13:48:06.907Z,0.70
2019-03-05T13:49:24.102Z,0.60
2019-03-05T13:50:40.781Z,0.70
2019-03-05T13:51:59.623Z,0.90
2019-03-05T13:53:22.550Z,0.80
2019-03-05T13:54:36.593Z,0.70
2019-03-05T13:55:54.923Z,0.80
2019-03-05T13:57:15.209Z,0.80
2019-03-05T13:58:31.533Z,0.80
2019-03-05T13:59:48.518Z,0.80
2019-03-05T14:01:05.026Z,0.70
2019-03-05T14:02:21.777Z,0.60
2019-03-05T14:03:48.720Z,0.65
2019-03-05T14:05:24.690Z,0.68
2019-03-05T14:06:41.373Z,0.90
2019-03-05T14:07:58.459Z,0.75
2019-03-05T14:09:15.834Z,0.60
2019-03-05T14:10:32.393Z,0.72
2019-03-05T14:11:49.121Z,0.70
2019-03-05T14:13:05.457Z,0.72
2019-03-05T14:14:22.692Z,0.60
2019-03-05T14:15:39.905Z,0.88
2019-03-05T14:18:34.624Z,0.60
2019-03-05T14:19:51.104Z,0.72
2019-03-05T14:21:07.486Z,0.53
2019-03-05T14:22:24.573Z,0.75
2019-03-05T14:23:40.983Z,0.53
2019-03-05T14:25:02.116Z,0.78
2019-03-05T14:26:14.324Z,0.60
2019-03-05T14:27:31.006Z,0.95
2019-03-05T14:28:47.490Z,0.70
2019-03-05T14:30:03.856Z,0.88
2019-03-05T14:31:21.985Z,1.32
2019-03-05T14:32:38.600Z,0.68
2019-03-05T14:33:55.098Z,0.72
2019-03-05T14:35:11.626Z,0.70
2019-03-05T14:36:28.262Z,0.75
2019-03-05T14:37:45.021Z,0.70
2019-03-05T14:39:01.377Z,0.70
2019-03-05T14:40:24.604Z,0.70
2019-03-05T14:41:38.403Z,0.60
2019-03-05T14:42:54.782Z,0.42
2019-03-05T14:44:12.578Z,0.80
2019-03-05T14:45:29.533Z,0.60
2019-03-05T14:46:45.984Z,0.70
2019-03-05T14:48:04.367Z,0.70
2019-03-05T14:49:21.224Z,0.70
2019-03-05T14:50:38.645Z,0.60
2019-03-05T14:51:55.078Z,0.50
2019-03-05T14:53:11.638Z,0.50
2019-03-05T14:54:28.483Z,0.88
2019-03-05T14:55:45.886Z,0.60
2019-03-05T14:57:01.165Z,0.70
2019-03-05T14:58:25.410Z,0.50
2019-03-05T14:59:41.865Z,0.53
2019-03-05T15:00:58.658Z,0.70
2019-03-05T15:02:14.149Z,0.50
2019-03-05T15:03:38.361Z,0.60
2019-03-05T15:04:53.657Z,0.50
2019-03-05T15:06:17.885Z,0.50
2019-03-05T15:07:53.871Z,0.68
2019-03-05T15:09:10.891Z,0.53
2019-03-05T15:10:28.317Z,0.50
2019-03-05T15:11:44.679Z,0.60
2019-03-05T15:13:01.087Z,0.60
2019-03-05T15:14:18.359Z,0.70
2019-03-05T15:15:34.866Z,0.65
2019-03-05T15:16:51.485Z,0.60
2019-03-05T15:18:08.278Z,0.62
2019-03-05T15:19:24.723Z,0.80
2019-03-05T15:20:41.109Z,0.75
2019-03-05T15:21:57.619Z,1.02
2019-03-05T15:23:14.099Z,0.50
2019-03-05T15:24:30.878Z,0.90
2019-03-05T15:25:47.344Z,0.75
2019-03-05T15:27:04.204Z,0.60
2019-03-05T15:28:20.812Z,0.90
2019-03-05T15:29:37.206Z,0.60
2019-03-05T15:30:54.015Z,0.70
2019-03-05T15:32:11.363Z,0.60
2019-03-05T15:33:27.882Z,0.70
2019-03-05T15:34:44.289Z,0.85
2019-03-05T15:36:00.845Z,0.80
2019-03-05T15:37:17.971Z,1.37
2019-03-05T15:38:35.801Z,0.70
2019-03-05T15:39:52.295Z,0.65
2019-03-05T15:41:09.569Z,0.80
2019-03-05T15:42:28.708Z,0.70
2019-03-05T15:43:44.493Z,0.85
2019-03-05T15:45:00.975Z,0.95
2019-03-05T15:46:22.536Z,1.22
2019-03-05T15:48:58.177Z,0.90
2019-03-05T15:50:14.631Z,1.00
2019-03-05T15:51:31.287Z,0.95
2019-03-05T15:52:48.462Z,0.53
2019-03-05T15:54:05.576Z,0.80
2019-03-05T15:55:11.348Z,0.75
2019-03-05T15:56:16.628Z,0.70
2019-03-05T15:57:26.081Z,0.70
2019-03-05T15:58:28.524Z,0.57
2019-03-05T15:59:33.678Z,0.70
2019-03-05T16:00:38.831Z,0.70
2019-03-05T16:01:44.090Z,0.78
2019-03-05T16:02:49.291Z,0.60
2019-03-05T16:03:54.404Z,0.70
2019-03-05T16:04:59.640Z,0.85
2019-03-05T16:06:05.065Z,0.50
2019-03-05T16:07:12.592Z,0.70
2019-03-05T16:08:20.948Z,0.72
2019-03-05T16:09:24.693Z,0.70
2019-03-05T16:10:29.867Z,0.70
2019-03-05T16:11:35.210Z,0.65
2019-03-05T16:12:42.588Z,0.80
2019-03-05T16:13:47.370Z,0.80
2019-03-05T16:14:52.732Z,0.88
2019-03-05T16:15:57.915Z,1.00
2019-03-05T16:17:03.093Z,1.00
2019-03-05T16:18:09.430Z,0.90
2019-03-05T16:19:16.571Z,0.90
2019-03-05T16:20:25.908Z,0.80
2019-03-05T16:21:28.319Z,0.80
2019-03-05T16:22:33.436Z,0.85
2019-03-05T16:23:38.579Z,0.95
2019-03-05T16:24:43.781Z,0.90
2019-03-05T16:25:50.322Z,0.80
2019-03-05T16:26:56.968Z,1.05
2019-03-05T16:28:06.441Z,0.95
2019-03-05T16:29:09.938Z,0.90
2019-03-05T16:30:35.347Z,0.80
2019-03-05T16:32:02.192Z,0.80
2019-03-05T16:33:36.375Z,0.80
2019-03-05T16:34:58.539Z,0.90
2019-03-05T16:36:29.241Z,0.70
2019-03-05T16:38:03.624Z,0.70
2019-03-05T16:39:46.453Z,0.80
2019-03-05T16:41:25.831Z,1.12
2019-03-05T16:42:45.951Z,1.00
2019-03-05T16:44:08.436Z,0.95
2019-03-05T16:45:22.109Z,0.98
2019-03-05T16:46:44.596Z,0.80
2019-03-05T16:48:09.235Z,0.90
2019-03-05T16:49:37.540Z,0.75
2019-03-05T16:51:01.692Z,0.70
2019-03-05T16:52:37.886Z,0.75
2019-03-05T16:54:03.518Z,0.70
2019-03-05T16:55:33.942Z,0.60
2019-03-05T16:56:58.063Z,0.80
2019-03-05T16:58:20.853Z,0.98
2019-03-05T16:59:44.935Z,0.60
2019-03-05T17:01:08.029Z,0.60
2019-03-05T17:02:32.407Z,0.70
2019-03-05T17:04:06.154Z,0.60
2019-03-05T17:05:24.179Z,0.70
2019-03-05T17:07:03.984Z,0.72
2019-03-05T17:08:20.294Z,0.70
2019-03-05T17:09:50.742Z,0.70
2019-03-05T17:11:16.241Z,0.90
2019-03-05T17:12:21.866Z,1.05
2019-03-05T17:13:27.397Z,0.60
2019-03-05T17:14:32.786Z,0.70
2019-03-05T17:15:37.948Z,0.70
2019-03-05T17:16:43.177Z,0.70
2019-03-05T17:17:48.469Z,0.68
2019-03-05T17:18:53.777Z,1.10
2019-03-05T17:19:59.164Z,0.98